Latest Weather Observations for Hamilton

IDV60801

Issued at 4:32 am EST Wednesday 28 September 2016 (issued every 30 minutes, with the page automatically refreshed every 10 minutes)

About weather observations | Map of weather stations | Latest weather observations for VIC | Other Formats
Station Details ID: 090173 Name: HAMILTON AIRPORT Lat: -37.65 Lon: 142.06 Height: 241.1 m
Data from the previous 72 hours. | See also: Recent months at Hamilton
Date/Time
EST
Temp
°C
App
Temp
°C
Dew
Point
°C
Rel
Hum
%
Delta-T
°C
Wind Press
QNH
hPa
Press
MSL
hPa
Rain since
9am
mm
Dir  Spd
km/h
Gust
km/h
Spd
kts
Gust
kts
28/04:30am 6.5 2.5 4.7 88 0.8 N 15 17 8 9 1011.2 1011.3 0.0
28/04:00am 6.9 2.6 5.1 88 0.8 N 17 19 9 10 1011.1 1011.2 0.0
28/03:30am 7.0 2.3 5.3 89 0.8 N 19 20 10 11 1011.3 1011.4 0.0
28/03:00am 7.1 3.2 5.4 89 0.8 N 15 19 8 10 1011.4 1011.5 0.0
28/02:30am 7.6 3.3 5.4 86 1.0 N 17 20 9 11 1011.6 1011.7 0.0
28/02:00am 7.9 3.4 5.9 87 0.9 N 19 22 10 12 1011.7 1011.8 0.0
28/01:30am 7.6 2.8 5.7 88 0.9 N 20 24 11 13 1012.0 1012.1 0.0
28/01:00am 8.0 3.8 5.8 86 1.0 N 17 20 9 11 1012.3 1012.4 0.0
28/12:30am 7.9 3.8 6.0 88 0.9 NNW 17 20 9 11 1012.4 1012.5 0.0
28/12:00am 7.8 3.3 6.1 89 0.8 N 19 22 10 12 1012.4 1012.5 0.0
 
Date/Time
EST
Temp
°C
App
Temp
°C
Dew
Point
°C
Rel
Hum
%
Delta-T
°C
Wind Press
QNH
hPa
Press
MSL
hPa
Rain since
9am
mm
Dir  Spd
km/h
Gust
km/h
Spd
kts
Gust
kts
27/11:30pm 7.5 3.4 6.0 90 0.7 NNW 17 20 9 11 1012.6 1012.7 0.0
27/11:00pm 7.2 3.4 5.8 91 0.6 N 15 17 8 9 1012.7 1012.8 0.0
27/10:30pm 7.9 3.5 6.5 91 0.7 N 19 20 10 11 1012.8 1012.9 0.0
27/10:00pm 7.8 4.1 6.4 91 0.6 N 15 17 8 9 1012.7 1012.8 0.0
27/09:30pm 7.6 4.3 6.2 91 0.6 NNW 13 17 7 9 1012.6 1012.7 0.0
27/09:00pm 7.6 4.2 6.1 90 0.7 NNW 13 15 7 8 1012.8 1012.9 0.0
27/08:30pm 7.8 4.4 5.9 88 0.9 N 13 15 7 8 1012.9 1013.0 0.0
27/08:00pm 9.1 5.4 6.5 84 1.2 NNW 15 17 8 9 1013.0 1013.1 0.0
27/07:30pm 9.9 6.3 6.6 80 1.6 NNW 15 20 8 11 1012.7 1012.8 0.0
27/07:00pm 11.4 7.1 7.1 75 2.1 NW 19 24 10 13 1012.8 1012.9 0.0
27/06:30pm 11.4 8.7 7.3 76 2.0 NW 11 15 6 8 1012.8 1012.9 0.0
27/06:00pm 12.1 8.6 7.2 72 2.4 NW 15 19 8 10 1012.6 1012.7 0.0
27/05:30pm 12.3 8.7 6.8 69 2.7 WNW 15 19 8 10 1012.5 1012.6 0.0
27/05:00pm 12.5 7.9 6.5 67 2.9 WNW 20 24 11 13 1012.3 1012.4 0.0
27/04:30pm 13.1 8.5 6.5 64 3.2 WNW 20 28 11 15 1012.3 1012.4 0.0
27/04:00pm 13.4 8.3 5.8 60 3.6 WNW 22 28 12 15 1012.1 1012.2 0.0
27/03:30pm 13.4 9.2 5.8 60 3.6 WNW 17 20 9 11 1012.2 1012.3 0.0
27/03:00pm 13.1 8.2 5.3 59 3.7 WNW 20 33 11 18 1012.1 1012.2 0.0
27/02:30pm 13.2 8.0 5.4 59 3.7 WNW 22 30 12 16 1012.2 1012.3 0.0
27/02:00pm 12.9 8.0 5.3 60 3.6 WNW 20 26 11 14 1012.3 1012.4 0.0
27/01:30pm 13.2 8.2 4.6 56 4.0 W 20 30 11 16 1012.5 1012.6 0.0
27/01:00pm 13.1 7.6 4.0 54 4.2 WNW 22 30 12 16 1012.7 1012.8 0.0
27/12:30pm 13.1 7.0 4.8 57 3.9 WNW 26 35 14 19 1012.8 1012.9 0.0
27/12:00pm 12.9 7.1 4.6 57 3.9 WNW 24 35 13 19 1013.1 1013.2 0.0
27/11:30am 13.0 7.8 5.4 60 3.6 WNW 22 33 12 18 1013.2 1013.3 0.0
27/11:00am 11.3 6.0 5.0 65 2.9 W 22 28 12 15 1013.4 1013.6 0.0
27/10:30am 11.0 4.5 4.5 64 3.0 W 28 41 15 22 1013.4 1013.6 0.0
27/10:00am 11.1 5.0 4.6 64 3.0 W 26 35 14 19 1013.3 1013.5 0.0
27/09:30am 10.8 4.3 4.9 67 2.7 W 28 41 15 22 1013.1 1013.2 0.0
27/09:00am 9.9 3.3 4.1 67 2.6 W 28 33 15 18 1012.9 1013.0 7.2
27/08:30am 9.2 2.8 5.2 76 1.8 W 28 37 15 20 1012.4 1012.5 7.2
27/08:00am 8.4 3.3 5.9 84 1.2 W 22 30 12 16 1012.2 1012.3 7.2
27/07:30am 7.5 3.7 6.0 90 0.7 W 15 19 8 10 1011.8 1011.9 7.2
27/07:00am 6.8 2.9 5.4 91 0.6 W 15 20 8 11 1011.6 1011.7 7.2
27/06:30am 7.0 2.2 5.8 92 0.5 W 20 30 11 16 1011.2 1011.3 7.2
27/06:26am 7.0 2.3 5.9 93 0.5 W 20 26 11 14 1011.1 1011.2 7.2
27/06:00am 7.2 2.6 6.3 94 0.4 W 20 26 11 14 1010.6 1010.8 7.2
27/05:30am 7.4 2.1 6.7 95 0.3 W 24 32 13 17 1010.3 1010.5 7.2
27/05:00am 7.5 3.0 6.9 96 0.3 W 20 28 11 15 1010.1 1010.3 7.0
27/04:30am 7.5 2.6 6.9 96 0.3 W 22 32 12 17 1009.8 1010.0 6.4
27/04:17am 7.5 3.2 6.9 96 0.3 W 19 26 10 14 1009.7 1009.8 6.4
27/04:12am 7.4 3.1 6.8 96 0.3 WNW 19 28 10 15 1009.6 1009.7 6.4
27/04:00am 7.3 3.3 6.7 96 0.3 WNW 17 26 9 14 1009.6 1009.7 6.4
27/03:30am 6.3 2.1 5.6 95 0.3 NNW 17 22 9 12 1009.5 1009.6 5.4
27/03:23am 6.1 2.2 5.4 95 0.3 NNW 15 22 8 12 1009.6 1009.7 5.2
27/03:00am 5.8 1.5 5.1 95 0.3 NNW 17 22 9 12 1009.5 1009.6 5.2
27/02:30am 5.5 1.1 4.6 94 0.4 NNW 17 20 9 11 1009.6 1009.7 5.2
27/02:28am 5.4 1.0 4.5 94 0.4 NNW 17 20 9 11 1009.7 1009.8 5.2
27/02:00am 4.9 0.3 3.9 93 0.4 NNW 17 20 9 11 1009.8 1010.0 5.0
27/01:30am 4.6 -0.4 3.7 94 0.4 NNW 19 24 10 13 1010.1 1010.3 5.0
27/01:00am 4.1 -0.6 3.2 94 0.4 NNW 17 20 9 11 1010.1 1010.3 5.0
27/12:30am 3.9 -0.4 3.0 94 0.4 NNW 15 19 8 10 1010.2 1010.4 5.0
27/12:00am 3.8 -0.2 2.8 93 0.4 NNW 13 15 7 8 1010.2 1010.4 5.0
 
Date/Time
EST
Temp
°C
App
Temp
°C
Dew
Point
°C
Rel
Hum
%
Delta-T
°C
Wind Press
QNH
hPa
Press
MSL
hPa
Rain since
9am
mm
Dir  Spd
km/h
Gust
km/h
Spd
kts
Gust
kts
26/11:30pm 4.5 0.2 3.3 92 0.5 NNW 15 17 8 9 1010.2 1010.4 5.0
26/11:00pm 4.5 0.6 3.3 92 0.5 NNW 13 17 7 9 1010.4 1010.6 5.0
26/10:30pm 4.6 0.6 3.1 90 0.6 NNW 13 15 7 8 1010.4 1010.6 5.0
26/10:00pm 5.3 1.8 3.6 89 0.7 NNW 11 13 6 7 1010.3 1010.5 5.0
26/09:30pm 5.8 2.5 4.3 90 0.7 NW 11 15 6 8 1010.3 1010.5 5.0
26/09:00pm 6.4 2.3 4.6 88 0.8 WNW 15 20 8 11 1010.3 1010.5 5.0
26/08:30pm 6.5 2.0 4.0 84 1.1 NW 17 20 9 11 1010.0 1010.2 4.8
26/08:00pm 5.8 1.6 4.0 88 0.8 NNW 15 17 8 9 1009.7 1009.8 4.8
26/07:30pm 6.1 1.5 3.9 86 0.9 NNW 17 19 9 10 1009.3 1009.4 4.8
26/07:00pm 6.8 2.6 3.9 82 1.3 NW 15 19 8 10 1009.1 1009.2 4.8
26/06:30pm 7.5 1.2 3.7 77 1.6 WNW 26 33 14 18 1008.9 1009.0 4.8
26/06:00pm 8.1 2.3 4.5 78 1.6 NW 24 35 13 19 1008.8 1008.9 4.8
26/05:30pm 8.7 3.5 5.4 80 1.5 NW 22 30 12 16 1008.8 1008.9 4.8
26/05:00pm 9.3 4.2 6.2 81 1.5 NNW 22 30 12 16 1008.4 1008.5 4.8
26/04:30pm 7.1 1.1 5.1 87 0.9 NW 26 39 14 21 1008.5 1008.6 4.6
26/04:00pm 7.0 1.1 5.6 91 0.6 WNW 26 37 14 20 1009.3 1009.4 3.2
26/03:53pm 7.0 0.7 5.6 91 0.6 WNW 28 37 15 20 1009.3 1009.4 2.6
26/03:30pm 7.8 0.5 5.6 86 1.0 WNW 33 54 18 29 1008.8 1008.9 1.2
26/03:29pm 8.0 0.9 5.6 85 1.1 WNW 32 50 17 27 1008.8 1008.9 1.0
26/03:00pm 10.5 4.8 6.5 76 1.9 NW 26 33 14 18 1008.2 1008.3 0.2
26/02:30pm 12.6 8.3 7.1 69 2.7 NNW 19 24 10 13 1008.0 1008.1 0.2
26/02:05pm 10.6 3.0 7.5 81 1.5 N 37 56 20 30 1008.5 1008.6 0.2
26/02:00pm 10.2 2.0 6.7 79 1.7 NNW 39 56 21 30 1008.5 1008.6 0.0
26/01:54pm 12.3 6.0 5.7 64 3.1 NNW 28 52 15 28 1008.4 1008.5 0.0
26/01:30pm 13.7 7.5 6.1 60 3.7 NNW 28 39 15 21 1008.7 1008.8 0.0
26/01:00pm 13.9 7.4 6.5 61 3.6 N 30 37 16 20 1009.2 1009.3 0.0
26/12:30pm 13.3 6.3 5.9 61 3.5 NNW 32 44 17 24 1009.5 1009.6 0.0
26/12:00pm 13.5 7.1 5.4 58 3.9 NNW 28 35 15 19 1010.1 1010.3 0.0
26/11:30am 12.5 6.2 5.9 64 3.1 NNW 28 33 15 18 1010.5 1010.7 0.0
26/11:00am 12.2 6.5 6.5 68 2.7 NNW 26 33 14 18 1011.0 1011.1 0.0
26/10:30am 12.8 6.9 7.3 69 2.7 NNW 28 37 15 20 1011.3 1011.4 0.0
26/10:00am 11.9 5.8 6.6 70 2.6 NNW 28 39 15 21 1011.6 1011.7 0.0
26/09:30am 11.3 5.7 7.2 76 2.0 NNW 26 37 14 20 1012.0 1012.1 0.0
26/09:00am 10.3 5.4 7.0 80 1.6 N 22 26 12 14 1011.9 1012.0 0.8
26/08:30am 9.5 4.5 6.4 81 1.5 N 22 30 12 16 1011.8 1011.9 0.8
26/08:00am 8.7 4.8 7.2 90 0.7 N 17 20 9 11 1012.0 1012.1 0.8
26/07:30am 7.0 3.6 6.1 94 0.4 N 13 15 7 8 1012.2 1012.3 0.8
26/07:00am 6.1 2.6 5.4 95 0.3 N 13 15 7 8 1012.0 1012.1 0.8
26/06:30am 5.0 1.3 4.3 95 0.3 N 13 15 7 8 1012.0 1012.1 0.8
26/06:00am 4.4 0.6 3.7 95 0.3 N 13 17 7 9 1012.1 1012.2 0.8
26/05:30am 4.5 0.7 3.8 95 0.3 N 13 15 7 8 1012.1 1012.2 0.8
26/05:00am 4.3 0.4 3.6 95 0.3 N 13 17 7 9 1012.0 1012.1 0.8
26/04:30am 4.4 0.6 3.7 95 0.3 N 13 15 7 8 1012.1 1012.2 0.8
26/04:00am 4.6 0.8 3.7 94 0.4 N 13 15 7 8 1012.1 1012.2 0.8
26/03:30am 4.9 1.5 4.0 94 0.4 N 11 13 6 7 1012.2 1012.3 0.8
26/03:00am 5.6 2.3 4.7 94 0.4 N 11 11 6 6 1012.6 1012.7 0.8
26/02:30am 5.6 2.3 4.7 94 0.4 N 11 15 6 8 1012.8 1012.9 0.8
26/02:00am 6.0 2.8 5.1 94 0.4 N 11 13 6 7 1013.0 1013.1 0.8
26/01:30am 6.1 3.3 5.2 94 0.4 N 9 11 5 6 1013.2 1013.3 0.6
26/01:00am 6.2 3.8 5.3 94 0.4 N 7 7 4 4 1013.5 1013.7 0.6
26/12:30am 6.2 3.4 5.2 93 0.4 NNW 9 9 5 5 1013.7 1013.9 0.6
26/12:00am 6.1 3.3 5.1 93 0.4 N 9 11 5 6 1013.8 1014.0 0.6
 
Date/Time
EST
Temp
°C
App
Temp
°C
Dew
Point
°C
Rel
Hum
%
Delta-T
°C
Wind Press
QNH
hPa
Press
MSL
hPa
Rain since
9am
mm
Dir  Spd
km/h
Gust
km/h
Spd
kts
Gust
kts
25/11:30pm 6.1 2.9 4.9 92 0.5 N 11 13 6 7 1013.9 1014.1 0.6
25/11:00pm 6.6 3.4 5.2 91 0.6 N 11 13 6 7 1014.0 1014.2 0.6
25/10:30pm 8.1 5.9 6.2 88 0.9 WNW 7 13 4 7 1014.0 1014.2 0.6
25/10:00pm 8.3 6.1 6.1 86 1.0 N 7 9 4 5 1014.1 1014.3 0.0
25/09:30pm 8.7 6.4 5.8 82 1.3 NW 7 9 4 5 1014.1 1014.3 0.0
25/09:00pm 9.0 6.7 5.7 80 1.5 NW 7 9 4 5 1014.2 1014.4 0.0
25/08:30pm 9.3 7.0 5.7 78 1.7 NNW 7 9 4 5 1014.1 1014.3 0.0
25/08:00pm 9.5 7.3 5.5 76 1.8 NW 6 9 3 5 1013.8 1014.0 0.0
25/07:30pm 9.7 6.5 5.3 74 2.0 NW 11 15 6 8 1013.7 1013.9 0.0
25/07:00pm 10.0 6.4 4.8 70 2.4 NW 13 17 7 9 1013.2 1013.3 0.0
25/06:30pm 10.9 8.0 4.6 65 2.9 WNW 9 13 5 7 1013.0 1013.1 0.0
25/06:00pm 11.3 8.8 4.5 63 3.1 W 7 9 4 5 1012.6 1012.7 0.0
25/05:30pm 11.6 9.1 4.8 63 3.1 WNW 7 11 4 6 1012.4 1012.5 0.0
25/05:00pm 11.7 7.9 3.7 58 3.6 W 13 17 7 9 1012.0 1012.1 0.0
25/04:30pm 11.7 7.5 4.0 59 3.5 WSW 15 19 8 10 1012.0 1012.1 0.0
25/04:00pm 12.7 8.6 4.4 57 3.8 W 15 19 8 10 1011.9 1012.0 0.0
25/03:30pm 11.6 7.1 4.3 61 3.3 WSW 17 22 9 12 1011.9 1012.0 0.0
25/03:00pm 11.6 8.1 5.3 65 2.9 W 13 17 7 9 1012.1 1012.2 0.0
25/02:30pm 11.4 7.0 4.8 64 3.0 WNW 17 24 9 13 1012.3 1012.4 0.0
25/02:00pm 11.5 6.9 3.5 58 3.6 W 17 24 9 13 1012.3 1012.4 0.0
25/01:30pm 11.7 7.4 5.3 65 3.0 SW 17 22 9 12 1012.3 1012.4 0.0
25/01:00pm 11.2 6.1 5.9 70 2.5 WSW 22 33 12 18 1012.7 1012.8 0.0
25/12:30pm 11.5 6.8 5.2 65 2.9 WSW 19 30 10 16 1013.0 1013.1 0.0
25/12:00pm 9.7 4.3 6.4 80 1.6 WSW 24 30 13 16 1013.2 1013.3 0.0
25/11:30am 12.2 7.2 4.7 60 3.5 W 20 30 11 16 1013.1 1013.2 0.0
25/11:00am 11.3 6.2 4.3 62 3.2 W 20 28 11 15 1013.1 1013.2 0.0
25/10:30am 10.8 5.9 4.9 67 2.7 W 20 30 11 16 1013.1 1013.2 0.0
25/10:00am 10.3 5.4 5.3 71 2.3 W 20 32 11 17 1013.1 1013.2 0.0
25/09:30am 9.6 5.6 5.0 73 2.1 W 15 20 8 11 1013.1 1013.2 0.0
25/09:00am 8.3 3.0 4.9 79 1.5 WSW 22 30 12 16 1012.9 1013.0 10.6
25/08:30am 9.0 5.2 5.6 79 1.6 W 15 24 8 13 1012.7 1012.8 10.6
25/08:00am 7.1 3.5 5.1 87 0.9 WNW 13 17 7 9 1012.2 1012.3 10.6
25/07:30am 5.5 2.6 4.6 94 0.4 NNW 9 13 5 7 1011.8 1011.9 10.6
25/07:00am 4.2 1.1 3.5 95 0.3 NNW 9 11 5 6 1011.4 1011.5 10.6
25/06:30am 3.3 0.3 2.3 93 0.4 NW 7 9 4 5 1011.0 1011.1 10.6
25/06:00am 3.7 0.4 2.7 93 0.4 NW 9 9 5 5 1010.5 1010.7 10.6
25/05:30am 4.1 0.5 3.1 93 0.4 NNW 11 13 6 7 1010.3 1010.5 10.6
25/05:00am 4.4 1.2 3.2 92 0.5 NW 9 11 5 6 1010.0 1010.2 10.6

Other Formats:

Comma delimited format used in spreadsheet applications
http://www.bom.gov.au/fwo/IDV60801/IDV60801.94829.axf

JavaScript Object Notation format (JSON) in row-major order
http://www.bom.gov.au/fwo/IDV60801/IDV60801.94829.json